Time;durP1;ratioP1;P1;durP2;ratioP2;P2;SDS_P1;SDS_P2;PMS_P1;PMS_P2;Temp;Humidity;BMP_temperature;BMP_pressure;BME280_temperature;BME280_humidity;BME280_pressure;Samples;Min_cycle;Max_cycle;Signal;HPM_P1;HPM_P2
2022/09/21 00:01:27;;;;;;;7.10;3.42;;;;;;;;;;4421514;32;20049;-70
2022/09/21 00:03:54;;;;;;;9.45;3.83;;;;;;;;;;4407010;32;20402;-70
2022/09/21 00:06:22;;;;;;;5.72;3.42;;;;;;;;;;4420742;32;20022;-70
2022/09/21 00:08:48;;;;;;;11.48;3.40;;;;;;;;;;4421030;32;20465;-70
2022/09/21 00:11:20;;;;;;;10.95;3.92;;;;;;;;;;4420703;32;20038;-70
2022/09/21 00:13:46;;;;;;;14.70;4.50;;;;;;;;;;4421395;32;20038;-70
2022/09/21 00:16:12;;;;;;;8.77;3.90;;;;;;;;;;4420715;32;20466;-70
2022/09/21 00:18:38;;;;;;;9.40;3.42;;;;;;;;;;4420760;32;20064;-70
2022/09/21 00:21:12;;;;;;;11.40;5.32;;;;;;;;;;4421192;32;20018;-70
2022/09/21 00:23:38;;;;;;;5.80;3.22;;;;;;;;;;4421373;32;20021;-70
2022/09/21 00:26:08;;;;;;;9.13;4.03;;;;;;;;;;4421479;32;20044;-70
2022/09/21 00:28:34;;;;;;;12.18;3.83;;;;;;;;;;4420833;32;20025;-70
2022/09/21 00:31:03;;;;;;;9.95;3.28;;;;;;;;;;4420841;32;20075;-70
2022/09/21 00:33:37;;;;;;;6.37;3.55;;;;;;;;;;4420444;32;20087;-70
2022/09/21 00:36:11;;;;;;;9.10;3.60;;;;;;;;;;4421441;32;20026;-70
2022/09/21 00:38:37;;;;;;;11.60;3.60;;;;;;;;;;4422062;32;20422;-70
2022/09/21 00:41:03;;;;;;;7.50;3.42;;;;;;;;;;4420570;32;20022;-70
2022/09/21 00:43:28;;;;;;;9.50;3.92;;;;;;;;;;4420455;32;20025;-70
2022/09/21 00:46:01;;;;;;;6.93;3.45;;;;;;;;;;4420475;32;20137;-70
2022/09/21 00:48:29;;;;;;;5.93;3.37;;;;;;;;;;4422435;32;20048;-70
2022/09/21 00:50:57;;;;;;;5.32;3.30;;;;;;;;;;4420773;32;20061;-70
2022/09/21 00:53:32;;;;;;;7.55;3.67;;;;;;;;;;4421642;32;20048;-70
2022/09/21 00:55:58;;;;;;;9.70;3.62;;;;;;;;;;4421918;32;20026;-70
2022/09/21 00:58:28;;;;;;;9.75;3.85;;;;;;;;;;4420486;32;20026;-70
2022/09/21 01:00:54;;;;;;;13.27;4.37;;;;;;;;;;4406764;32;20074;-70
2022/09/21 01:03:19;;;;;;;14.10;4.00;;;;;;;;;;4422163;32;20401;-70
2022/09/21 01:05:45;;;;;;;10.95;4.12;;;;;;;;;;4420755;32;20018;-70
2022/09/21 01:08:11;;;;;;;;;;;;;;;;;;4421046;32;20332;-71
2022/09/21 01:10:54;;;;;;;10.18;3.25;;;;;;;;;;4420203;32;19941;-70
2022/09/21 01:13:33;;;;;;;9.82;3.95;;;;;;;;;;4420863;32;20376;-70
2022/09/21 01:16:06;;;;;;;7.90;3.72;;;;;;;;;;4421079;32;20015;-70
2022/09/21 01:18:51;;;;;;;20.10;4.18;;;;;;;;;;4421099;32;20023;-70
2022/09/21 01:21:55;;;;;;;10.25;4.60;;;;;;;;;;4396808;32;20374;-70
2022/09/21 01:24:29;;;;;;;8.35;4.60;;;;;;;;;;4418056;32;20043;-70
2022/09/21 01:27:15;;;;;;;7.55;4.12;;;;;;;;;;4421277;32;20140;-70
2022/09/21 01:29:43;;;;;;;6.32;3.12;;;;;;;;;;4421422;32;20042;-70
2022/09/21 01:32:22;;;;;;;12.27;4.32;;;;;;;;;;4420511;32;20018;-70
2022/09/21 01:34:51;;;;;;;19.50;3.90;;;;;;;;;;4421661;32;20057;-70
2022/09/21 01:37:19;;;;;;;6.97;3.60;;;;;;;;;;4407183;32;20327;-70
2022/09/21 01:39:46;;;;;;;11.45;4.43;;;;;;;;;;4420258;32;20406;-70
2022/09/21 01:42:12;;;;;;;11.40;4.43;;;;;;;;;;4421316;32;20038;-69
2022/09/21 01:44:39;;;;;;;11.35;4.25;;;;;;;;;;4420104;32;20403;-69
2022/09/21 01:47:05;;;;;;;12.65;4.55;;;;;;;;;;4406811;32;20041;-70
2022/09/21 01:49:51;;;;;;;10.30;4.18;;;;;;;;;;4420491;32;20400;-69
2022/09/21 01:52:18;;;;;;;10.32;4.20;;;;;;;;;;4406256;32;20021;-70
2022/09/21 01:55:03;;;;;;;11.68;4.60;;;;;;;;;;4420301;32;20082;-70
2022/09/21 01:57:33;;;;;;;8.75;4.78;;;;;;;;;;4421076;32;20030;-70
2022/09/21 01:59:59;;;;;;;10.95;5.55;;;;;;;;;;4422878;32;20052;-70
2022/09/21 02:02:24;;;;;;;11.57;4.93;;;;;;;;;;4422851;32;20404;-70
2022/09/21 02:04:53;;;;;;;11.90;6.22;;;;;;;;;;4423641;32;20075;-70
2022/09/21 02:07:18;;;;;;;9.88;5.18;;;;;;;;;;4422889;32;20026;-70
2022/09/21 02:09:46;;;;;;;8.38;4.75;;;;;;;;;;4422414;32;20527;-70
2022/09/21 02:12:11;;;;;;;13.02;5.20;;;;;;;;;;4422366;32;20047;-70
2022/09/21 02:14:37;;;;;;;13.20;5.82;;;;;;;;;;4423523;32;20408;-70
2022/09/21 02:17:03;;;;;;;12.68;5.45;;;;;;;;;;4422323;32;20419;-69
2022/09/21 02:19:35;;;;;;;12.25;4.87;;;;;;;;;;4422826;32;20030;-69
2022/09/21 02:22:39;;;;;;;10.73;5.75;;;;;;;;;;4410655;32;20022;-69
2022/09/21 02:25:08;;;;;;;12.68;5.28;;;;;;;;;;4421574;32;20084;-70
2022/09/21 02:27:37;;;;;;;9.07;4.95;;;;;;;;;;4422654;32;20071;-69
2022/09/21 02:30:23;;;;;;;16.60;6.82;;;;;;;;;;4422210;32;20026;-70
2022/09/21 02:32:55;;;;;;;9.30;5.62;;;;;;;;;;4424426;32;20022;-70
2022/09/21 02:44:35;;;;;;;13.02;5.60;;;;;;;;;;4422664;32;20438;-70
2022/09/21 02:47:14;;;;;;;9.70;6.53;;;;;;;;;;4424084;32;20066;-70
2022/09/21 02:50:02;;;;;;;10.55;5.75;;;;;;;;;;4422732;32;20412;-70
2022/09/21 02:52:28;;;;;;;12.00;5.97;;;;;;;;;;4421827;32;20026;-70
2022/09/21 02:54:54;;;;;;;10.43;6.72;;;;;;;;;;4422394;32;20047;-69
2022/09/21 02:57:21;;;;;;;12.60;5.72;;;;;;;;;;4422630;32;20022;-70
2022/09/21 02:59:47;;;;;;;12.85;6.80;;;;;;;;;;4421949;32;20075;-69
2022/09/21 03:02:15;;;;;;;17.40;6.03;;;;;;;;;;4422506;32;20038;-70
2022/09/21 03:05:00;;;;;;;13.77;6.65;;;;;;;;;;4421919;32;20044;-70
2022/09/21 03:07:26;;;;;;;12.60;6.15;;;;;;;;;;4421305;32;20030;-70
2022/09/21 03:09:51;;;;;;;14.55;5.72;;;;;;;;;;4421718;32;20022;-70
2022/09/21 03:12:16;;;;;;;12.75;5.53;;;;;;;;;;4423511;32;20116;-69
2022/09/21 03:14:42;;;;;;;;;;;;;;;;;;4421772;32;20053;-70
2022/09/21 03:17:10;;;;;;;12.82;5.80;;;;;;;;;;4421888;32;19952;-69
2022/09/21 03:19:35;;;;;;;8.30;5.53;;;;;;;;;;4421625;32;20057;-70
2022/09/21 03:22:02;;;;;;;16.25;6.80;;;;;;;;;;4422350;32;20107;-70
2022/09/21 03:24:45;;;;;;;16.65;5.95;;;;;;;;;;4421778;32;20023;-70
2022/09/21 03:27:40;;;;;;;10.57;6.45;;;;;;;;;;4422631;32;20022;-70
2022/09/21 03:30:06;;;;;;;8.25;4.85;;;;;;;;;;4416334;32;20022;-69
2022/09/21 03:32:31;;;;;;;19.80;8.32;;;;;;;;;;4408294;32;20048;-70
2022/09/21 03:37:40;;;;;;;10.40;5.37;;;;;;;;;;4423286;32;19984;-69
2022/09/21 03:40:06;;;;;;;15.63;6.40;;;;;;;;;;4421026;32;20375;-70
2022/09/21 03:42:32;;;;;;;11.02;5.80;;;;;;;;;;4421148;32;20022;-70
2022/09/21 03:44:57;;;;;;;;;;;;;;;;;;4407886;32;20071;-69
2022/09/21 03:47:22;;;;;;;11.27;5.93;;;;;;;;;;4422435;32;19933;-70
2022/09/21 03:49:47;;;;;;;;;;;;;;;;;;4422025;32;20091;-69
2022/09/21 03:52:12;;;;;;;11.50;5.75;;;;;;;;;;4420949;32;19951;-70
2022/09/21 03:54:38;;;;;;;;;;;;;;;;;;4422456;32;20219;-70
2022/09/21 03:57:03;;;;;;;13.93;6.68;;;;;;;;;;4420905;32;19949;-70
2022/09/21 03:59:28;;;;;;;16.50;6.80;;;;;;;;;;4422790;32;20018;-70
2022/09/21 04:01:53;;;;;;;;;;;;;;;;;;4422125;32;20018;-70
2022/09/21 04:04:19;;;;;;;12.65;6.28;;;;;;;;;;4420865;32;19950;-70
2022/09/21 04:06:45;;;;;;;;;;;;;;;;;;4421479;32;20144;-70
2022/09/21 04:09:10;;;;;;;14.43;6.85;;;;;;;;;;4421190;32;19952;-70
2022/09/21 04:11:36;;;;;;;;;;;;;;;;;;4407626;32;20411;-70
2022/09/21 04:14:02;;;;;;;11.10;5.78;;;;;;;;;;4421937;32;19995;-70
2022/09/21 04:16:27;;;;;;;;;;;;;;;;;;4422162;32;20018;-69
2022/09/21 04:18:52;;;;;;;11.93;7.05;;;;;;;;;;4421494;32;19942;-70
2022/09/21 04:21:18;;;;;;;;;;;;;;;;;;4421456;32;20129;-70
2022/09/21 04:23:43;;;;;;;17.37;6.55;;;;;;;;;;4422467;32;19996;-70
2022/09/21 04:26:08;;;;;;;;;;;;;;;;;;4404884;32;20018;-70
2022/09/21 04:28:34;;;;;;;14.52;7.10;;;;;;;;;;4418448;32;19933;-70
2022/09/21 04:30:59;;;;;;;;;;;;;;;;;;4421225;32;20148;-70
2022/09/21 04:33:24;;;;;;;14.98;6.25;;;;;;;;;;4406921;32;19944;-70
2022/09/21 04:35:50;;;;;;;;;;;;;;;;;;4421013;32;20110;-70
2022/09/21 04:38:15;;;;;;;9.68;7.03;;;;;;;;;;4420650;32;19940;-70
2022/09/21 04:40:40;;;;;;;;;;;;;;;;;;4421359;32;20021;-70
2022/09/21 04:43:06;;;;;;;14.77;7.37;;;;;;;;;;4420438;32;19933;-70
2022/09/21 04:45:33;;;;;;;;;;;;;;;;;;4421959;32;20113;-69
2022/09/21 04:47:58;;;;;;;13.00;6.55;;;;;;;;;;4421355;32;19934;-70
2022/09/21 04:50:23;;;;;;;;;;;;;;;;;;4422213;32;20022;-70
2022/09/21 04:52:49;;;;;;;17.52;6.32;;;;;;;;;;4420383;32;19956;-70
2022/09/21 04:55:14;;;;;;;;;;;;;;;;;;4421527;32;20102;-70
2022/09/21 04:57:39;;;;;;;11.80;6.50;;;;;;;;;;4422398;32;19933;-69
2022/09/21 05:00:05;;;;;;;;;;;;;;;;;;4420555;32;20145;-69
2022/09/21 05:02:30;;;;;;;19.33;6.57;;;;;;;;;;4421493;32;19937;-70
2022/09/21 05:04:55;;;;;;;;;;;;;;;;;;4422587;32;20052;-70
2022/09/21 05:07:20;;;;;;;18.73;7.53;;;;;;;;;;4420313;32;19933;-70
2022/09/21 05:10:04;;;;;;;;;;;;;;;;;;4420820;32;20023;-70
2022/09/21 05:12:30;;;;;;;10.88;6.65;;;;;;;;;;4420782;32;19933;-70
2022/09/21 05:14:55;;;;;;;16.35;6.68;;;;;;;;;;4420051;32;20049;-70
2022/09/21 05:17:21;;;;;;;;;;;;;;;;;;4407072;32;20049;-70
2022/09/21 05:19:47;;;;;;;13.05;7.43;;;;;;;;;;4420719;32;20308;-70
2022/09/21 05:22:12;;;;;;;;;;;;;;;;;;4421282;32;20073;-70
2022/09/21 05:24:41;;;;;;;15.65;7.47;;;;;;;;;;4420752;32;19964;-71
2022/09/21 05:27:07;;;;;;;19.30;7.80;;;;;;;;;;4407005;32;20118;-70
2022/09/21 05:29:32;;;;;;;18.67;7.47;;;;;;;;;;4419913;32;20026;-70
2022/09/21 05:32:10;;;;;;;20.90;8.13;;;;;;;;;;4420798;32;20064;-70
2022/09/21 05:34:42;;;;;;;21.42;8.75;;;;;;;;;;4423123;32;20080;-70
2022/09/21 05:37:29;;;;;;;21.87;10.20;;;;;;;;;;4423296;32;20052;-69
2022/09/21 05:39:54;;;;;;;13.93;7.35;;;;;;;;;;4422650;32;20056;-70
2022/09/21 05:42:19;;;;;;;;;;;;;;;;;;4424192;32;20035;-68
2022/09/21 05:44:48;;;;;;;13.48;7.75;;;;;;;;;;4423813;32;19947;-70
2022/09/21 05:47:23;;;;;;;12.60;7.70;;;;;;;;;;4422644;32;20048;-70
2022/09/21 05:50:09;;;;;;;10.40;6.82;;;;;;;;;;4423205;32;20078;-66
2022/09/21 05:52:52;;;;;;;13.52;7.45;;;;;;;;;;4400542;32;20022;-70
2022/09/21 05:55:24;;;;;;;15.02;8.82;;;;;;;;;;4434371;32;20407;-70
2022/09/21 05:57:54;;;;;;;17.60;10.02;;;;;;;;;;4438290;32;20018;-70
2022/09/21 06:00:21;;;;;;;16.12;9.50;;;;;;;;;;4438279;32;20052;-71
2022/09/21 06:02:55;;;;;;;17.50;10.13;;;;;;;;;;4437468;32;20093;-71
2022/09/21 06:05:21;;;;;;;19.58;11.52;;;;;;;;;;4438470;32;20025;-70
2022/09/21 06:07:49;;;;;;;18.10;12.00;;;;;;;;;;4438849;32;20362;-71
2022/09/21 06:10:15;;;;;;;21.92;12.65;;;;;;;;;;4423693;32;20076;-69
2022/09/21 06:12:40;;;;;;;;;;;;;;;;;;4438282;32;20432;-70
2022/09/21 06:15:08;;;;;;;18.80;11.02;;;;;;;;;;4437593;32;20326;-70
2022/09/21 06:17:34;;;;;;;19.05;9.23;;;;;;;;;;4437642;32;20013;-69
2022/09/21 06:20:19;;;;;;;16.65;9.88;;;;;;;;;;4423860;32;20414;-69
2022/09/21 06:22:45;;;;;;;17.80;9.52;;;;;;;;;;4437553;32;20379;-70
2022/09/21 06:25:10;;;;;;;18.12;10.07;;;;;;;;;;4437232;32;20022;-71
2022/09/21 06:27:35;;;;;;;;;;;;;;;;;;4423055;32;20122;-70
2022/09/21 06:30:01;;;;;;;21.58;9.65;;;;;;;;;;4423352;32;19936;-69
2022/09/21 06:32:26;;;;;;;;;;;;;;;;;;4438264;32;20033;-69
2022/09/21 06:34:51;;;;;;;19.23;10.00;;;;;;;;;;4437250;32;19932;-66
2022/09/21 06:37:16;;;;;;;20.48;9.35;;;;;;;;;;4438624;32;20021;-69
2022/09/21 06:39:41;;;;;;;;;;;;;;;;;;4437144;32;20400;-70
2022/09/21 06:42:07;;;;;;;14.67;7.73;;;;;;;;;;4439025;32;19951;-70
2022/09/21 06:44:32;;;;;;;;;;;;;;;;;;4437073;32;20177;-69
2022/09/21 06:47:00;;;;;;;18.80;8.57;;;;;;;;;;4423091;32;20304;-69
2022/09/21 06:49:27;;;;;;;26.02;9.20;;;;;;;;;;4437051;32;20053;-69
2022/09/21 06:51:53;;;;;;;19.60;8.90;;;;;;;;;;4438401;32;20045;-67
2022/09/21 06:54:18;;;;;;;18.85;8.23;;;;;;;;;;4437569;32;20022;-70
2022/09/21 06:56:43;;;;;;;15.80;8.70;;;;;;;;;;4438315;32;20429;-70
2022/09/21 06:59:09;;;;;;;;;;;;;;;;;;4437370;32;20143;-70
2022/09/21 07:01:34;;;;;;;18.27;9.30;;;;;;;;;;4437415;32;19975;-70
2022/09/21 07:04:00;;;;;;;20.02;9.38;;;;;;;;;;4435186;32;20045;-71
2022/09/21 07:06:25;;;;;;;15.40;8.05;;;;;;;;;;4437537;32;20049;-70
2022/09/21 07:08:52;;;;;;;12.02;8.05;;;;;;;;;;4424763;32;20327;-70
2022/09/21 07:11:18;;;;;;;37.75;10.68;;;;;;;;;;4437020;32;20080;-69
2022/09/21 07:13:44;;;;;;;22.85;7.65;;;;;;;;;;4437998;32;20048;-69
2022/09/21 07:16:12;;;;;;;15.07;7.05;;;;;;;;;;4438378;32;20049;-70
2022/09/21 07:18:38;;;;;;;23.58;8.00;;;;;;;;;;4436797;32;20355;-69
2022/09/21 07:21:05;;;;;;;23.33;6.93;;;;;;;;;;4436111;32;20404;-70
2022/09/21 07:23:31;;;;;;;13.07;5.68;;;;;;;;;;4433611;32;20090;-71
2022/09/21 07:25:59;;;;;;;17.55;6.37;;;;;;;;;;4434041;32;20018;-70
2022/09/21 07:28:25;;;;;;;11.25;4.78;;;;;;;;;;4436252;32;20029;-71
2022/09/21 07:30:50;;;;;;;10.73;5.47;;;;;;;;;;4436380;32;20048;-70
2022/09/21 07:33:15;;;;;;;15.23;4.90;;;;;;;;;;4436634;32;20025;-69
2022/09/21 07:35:49;;;;;;;9.93;5.03;;;;;;;;;;4436895;32;20056;-69
2022/09/21 07:38:14;;;;;;;12.75;5.93;;;;;;;;;;4437396;32;20006;-70
2022/09/21 07:40:39;;;;;;;13.00;5.53;;;;;;;;;;4436045;32;20051;-69
2022/09/21 07:43:05;;;;;;;13.27;4.53;;;;;;;;;;4436206;32;20076;-70
2022/09/21 07:45:30;;;;;;;;;;;;;;;;;;4437564;32;20052;-69
2022/09/21 07:48:01;;;;;;;11.40;4.32;;;;;;;;;;4436212;32;20224;-70
2022/09/21 07:50:26;;;;;;;8.90;4.12;;;;;;;;;;4435001;32;20053;-70
2022/09/21 07:52:51;;;;;;;8.38;4.03;;;;;;;;;;4425908;32;20029;-70
2022/09/21 07:55:17;;;;;;;11.05;3.50;;;;;;;;;;4425048;32;20022;-69
2022/09/21 08:00:28;;;;;;;9.30;4.87;;;;;;;;;;4432571;32;20148;-70
2022/09/21 08:02:53;;;;;;;12.40;4.05;;;;;;;;;;4431547;32;20041;-71
2022/09/21 08:05:18;;;;;;;10.90;4.03;;;;;;;;;;4431821;32;20162;-70
2022/09/21 08:07:44;;;;;;;37.17;7.70;;;;;;;;;;4430255;32;20371;-72
2022/09/21 08:10:12;;;;;;;9.88;4.05;;;;;;;;;;4433860;32;20349;-70
2022/09/21 08:12:49;;;;;;;12.32;3.30;;;;;;;;;;4433624;32;20037;-69
2022/09/21 08:15:16;;;;;;;27.98;6.07;;;;;;;;;;4435557;32;20029;-69
2022/09/21 08:17:42;;;;;;;6.82;3.08;;;;;;;;;;4436034;32;20048;-70
2022/09/21 08:20:10;;;;;;;18.45;4.47;;;;;;;;;;4422004;32;20017;-70
2022/09/21 08:22:44;;;;;;;10.27;3.17;;;;;;;;;;4435758;32;20177;-70
2022/09/21 08:25:13;;;;;;;20.65;5.00;;;;;;;;;;4420521;32;20030;-69
2022/09/21 08:27:39;;;;;;;10.68;3.83;;;;;;;;;;4420454;32;20078;-70
2022/09/21 08:30:13;;;;;;;14.60;4.97;;;;;;;;;;4421111;32;20034;-69
2022/09/21 08:32:41;;;;;;;6.85;3.15;;;;;;;;;;4420895;32;20018;-70
2022/09/21 08:35:07;;;;;;;13.00;3.58;;;;;;;;;;4420509;32;20372;-71
2022/09/21 08:37:36;;;;;;;7.07;3.10;;;;;;;;;;4420078;32;20089;-70
2022/09/21 08:40:16;;;;;;;;;;;;;;;;;;;;;
2022/09/21 08:46:26;;;;;;;13.75;3.67;;;;;;;;;;4359135;32;20032;-70
2022/09/21 08:49:01;;;;;;;5.22;1.62;;;;;;;;;;4387123;32;20064;-71
2022/09/21 08:51:29;;;;;;;9.77;2.55;;;;;;;;;;4406473;32;20041;-70
2022/09/21 08:53:57;;;;;;;11.38;3.00;;;;;;;;;;4419917;32;20197;-71
2022/09/21 08:56:24;;;;;;;7.47;2.40;;;;;;;;;;4406257;32;20360;-70
2022/09/21 08:58:49;;;;;;;12.25;2.20;;;;;;;;;;4421086;32;20480;-65
2022/09/21 09:01:30;;;;;;;15.63;2.87;;;;;;;;;;4421111;32;20069;-70
2022/09/21 09:03:55;;;;;;;18.75;4.28;;;;;;;;;;4420037;32;20156;-70
2022/09/21 09:06:51;;;;;;;9.25;2.58;;;;;;;;;;4409173;32;20072;-71
2022/09/21 10:32:30;;;;;;;5.37;1.87;;;;;;;;;;4418291;32;20065;-71
2022/09/21 10:35:06;;;;;;;9.68;2.22;;;;;;;;;;4407558;32;20467;-70
2022/09/21 10:59:35;;;;;;;7.35;1.52;;;;;;;;;;4259336;33;20183;-70
2022/09/21 11:02:02;;;;;;;5.95;1.92;;;;;;;;;;4303481;33;20355;-70
2022/09/21 11:04:37;;;;;;;4.85;1.65;;;;;;;;;;4367323;32;20030;-71
2022/09/21 11:07:31;;;;;;;4.32;1.60;;;;;;;;;;4422080;32;20025;-70
2022/09/21 11:13:38;;;;;;;7.93;1.50;;;;;;;;;;4422318;32;20067;-70
2022/09/21 11:16:13;;;;;;;4.47;1.50;;;;;;;;;;4346885;33;20051;-70
2022/09/21 11:48:08;;;;;;;11.63;2.08;;;;;;;;;;4396519;32;20056;-70
2022/09/21 11:50:59;;;;;;;7.10;1.48;;;;;;;;;;4405555;32;20063;-71
2022/09/21 11:56:49;;;;;;;5.65;1.48;;;;;;;;;;4436361;32;20048;-72
2022/09/21 11:59:28;;;;;;;11.20;2.62;;;;;;;;;;4435938;32;20406;-71
2022/09/21 12:02:12;;;;;;;14.55;2.67;;;;;;;;;;4435733;32;20465;-70
2022/09/21 12:04:48;;;;;;;8.77;1.70;;;;;;;;;;4436102;32;20056;-70
2022/09/21 12:07:29;;;;;;;14.45;4.12;;;;;;;;;;4435741;32;20017;-72
2022/09/21 12:09:57;;;;;;;4.15;1.55;;;;;;;;;;4435788;32;20155;-70
2022/09/21 12:12:29;;;;;;;4.68;1.40;;;;;;;;;;4437052;32;20359;-68
2022/09/21 12:15:03;;;;;;;3.25;1.37;;;;;;;;;;4437109;32;20382;-68
2022/09/21 12:17:48;;;;;;;8.70;2.08;;;;;;;;;;4436200;32;20422;-70
2022/09/21 12:20:16;;;;;;;4.93;1.35;;;;;;;;;;4435413;32;20387;-69
2022/09/21 12:22:43;;;;;;;5.65;1.20;;;;;;;;;;4434502;32;20030;-69
2022/09/21 12:25:27;;;;;;;6.45;1.83;;;;;;;;;;4436022;32;20112;-64
2022/09/21 12:28:11;;;;;;;3.50;1.58;;;;;;;;;;4436844;32;20029;-64
2022/09/21 12:30:38;;;;;;;7.95;1.40;;;;;;;;;;4436696;32;20029;-70
2022/09/21 12:33:27;;;;;;;6.72;1.55;;;;;;;;;;4433149;32;20401;-70
2022/09/21 12:36:13;;;;;;;9.65;1.58;;;;;;;;;;4398878;32;20049;-70
2022/09/21 12:38:44;;;;;;;8.27;2.03;;;;;;;;;;4421567;32;20461;-69
2022/09/21 12:41:21;;;;;;;3.97;1.37;;;;;;;;;;4419518;32;20068;-71
2022/09/21 12:43:59;;;;;;;7.07;1.77;;;;;;;;;;4420538;32;20145;-70
2022/09/21 12:46:27;;;;;;;7.47;1.37;;;;;;;;;;4420689;32;20042;-67
2022/09/21 12:48:52;;;;;;;3.75;1.30;;;;;;;;;;4421342;32;20034;-65
2022/09/21 12:51:34;;;;;;;6.60;1.62;;;;;;;;;;4419896;32;20079;-63
2022/09/21 12:54:05;;;;;;;4.70;1.60;;;;;;;;;;4419641;32;20370;-66
2022/09/21 12:56:36;;;;;;;8.48;2.37;;;;;;;;;;4405298;32;20029;-65
2022/09/21 12:59:20;;;;;;;4.37;1.50;;;;;;;;;;4420783;32;20060;-65
2022/09/21 13:01:51;;;;;;;5.68;2.30;;;;;;;;;;4419877;32;20221;-70
2022/09/21 13:04:28;;;;;;;4.30;1.65;;;;;;;;;;4419927;32;20524;-71
2022/09/21 13:06:56;;;;;;;4.00;1.58;;;;;;;;;;4428991;32;20362;-65
2022/09/21 13:09:22;;;;;;;5.50;1.42;;;;;;;;;;4421815;32;20026;-69
2022/09/21 13:11:54;;;;;;;7.43;2.17;;;;;;;;;;4420873;32;20048;-65
2022/09/21 13:14:20;;;;;;;5.57;1.85;;;;;;;;;;4435523;32;20375;-65
2022/09/21 13:16:52;;;;;;;5.85;1.35;;;;;;;;;;4435759;32;20152;-67
2022/09/21 13:19:22;;;;;;;6.87;1.35;;;;;;;;;;4435946;32;20021;-68
2022/09/21 13:22:12;;;;;;;5.65;1.60;;;;;;;;;;4434938;32;20037;-70
2022/09/21 13:24:38;;;;;;;3.70;1.40;;;;;;;;;;4421416;32;20388;-68
2022/09/21 13:27:05;;;;;;;5.62;2.15;;;;;;;;;;4435206;32;20048;-68
2022/09/21 13:29:33;;;;;;;9.07;1.92;;;;;;;;;;4435611;32;20446;-72
2022/09/21 13:32:00;;;;;;;5.40;1.77;;;;;;;;;;4435640;32;20127;-68
2022/09/21 13:34:27;;;;;;;7.35;1.58;;;;;;;;;;4434557;32;20072;-66
2022/09/21 13:37:12;;;;;;;6.45;1.40;;;;;;;;;;4421702;32;20097;-68
2022/09/21 13:39:49;;;;;;;6.45;2.12;;;;;;;;;;4434596;32;20069;-65
2022/09/21 13:42:27;;;;;;;8.07;1.73;;;;;;;;;;4435725;32;20041;-66
2022/09/21 13:44:53;;;;;;;3.90;1.35;;;;;;;;;;4420011;32;20393;-68
2022/09/21 13:47:26;;;;;;;5.12;1.95;;;;;;;;;;4419724;32;20026;-67
2022/09/21 13:49:52;;;;;;;6.28;1.30;;;;;;;;;;4420949;32;20029;-70
2022/09/21 13:52:21;;;;;;;5.47;1.65;;;;;;;;;;4420970;32;20476;-70
2022/09/21 13:55:00;;;;;;;4.68;1.70;;;;;;;;;;4421982;32;20422;-65
2022/09/21 13:57:26;;;;;;;5.90;1.50;;;;;;;;;;4422565;32;20030;-67
2022/09/21 14:00:07;;;;;;;4.30;1.52;;;;;;;;;;4423156;32;20056;-70
2022/09/21 14:02:35;;;;;;;6.20;1.60;;;;;;;;;;4408759;32;20355;-68
2022/09/21 14:05:06;;;;;;;4.85;1.65;;;;;;;;;;4422680;32;20034;-68
2022/09/21 14:07:32;;;;;;;3.53;1.65;;;;;;;;;;4422289;32;20053;-67
2022/09/21 14:10:00;;;;;;;5.55;1.60;;;;;;;;;;4420744;32;20435;-69
2022/09/21 14:12:31;;;;;;;4.40;1.50;;;;;;;;;;4436398;32;20091;-67
2022/09/21 14:15:14;;;;;;;7.15;1.60;;;;;;;;;;4437863;32;20109;-68
2022/09/21 14:17:40;;;;;;;7.68;1.75;;;;;;;;;;4436968;32;20022;-68
2022/09/21 14:20:26;;;;;;;1.90;1.00;;;;;;;;;;4423545;32;20066;-67
2022/09/21 14:23:09;;;;;;;4.97;2.03;;;;;;;;;;4436722;32;20057;-71
2022/09/21 14:25:55;;;;;;;3.92;1.48;;;;;;;;;;4438384;32;20429;-64
2022/09/21 14:28:40;;;;;;;6.47;1.33;;;;;;;;;;4437410;32;20075;-68
2022/09/21 14:31:07;;;;;;;7.97;1.87;;;;;;;;;;4436905;32;20078;-67
2022/09/21 14:33:41;;;;;;;4.47;1.62;;;;;;;;;;4436317;32;20061;-72
2022/09/21 14:36:07;;;;;;;3.37;1.37;;;;;;;;;;4435513;32;20065;-67
2022/09/21 14:38:40;;;;;;;4.37;1.42;;;;;;;;;;4434369;32;20095;-67
2022/09/21 14:41:06;;;;;;;4.30;1.25;;;;;;;;;;4430330;32;20045;-66
2022/09/21 14:43:34;;;;;;;6.12;1.75;;;;;;;;;;4428804;32;20037;-67
2022/09/21 14:46:18;;;;;;;5.37;1.98;;;;;;;;;;4432103;32;20344;-69
2022/09/21 14:48:53;;;;;;;7.85;1.92;;;;;;;;;;4433414;32;20096;-69
2022/09/21 14:51:22;;;;;;;5.60;1.73;;;;;;;;;;4430406;32;20447;-63
2022/09/21 14:54:05;;;;;;;3.45;1.45;;;;;;;;;;4431055;32;20131;-67
2022/09/21 14:56:50;;;;;;;5.78;1.85;;;;;;;;;;4416689;32;20060;-65
2022/09/21 14:59:28;;;;;;;5.12;1.58;;;;;;;;;;4432923;32;20029;-66
2022/09/21 15:02:02;;;;;;;4.72;1.40;;;;;;;;;;4430760;32;20041;-66
2022/09/21 15:04:36;;;;;;;7.12;2.60;;;;;;;;;;4434618;32;20064;-69
2022/09/21 15:12:42;;;;;;;7.43;1.77;;;;;;;;;;4435784;32;20390;-68
2022/09/21 15:15:27;;;;;;;6.25;1.30;;;;;;;;;;4437634;32;20076;-68
2022/09/21 15:17:58;;;;;;;6.75;1.42;;;;;;;;;;4436538;32;20029;-68
2022/09/21 15:20:24;;;;;;;4.60;1.25;;;;;;;;;;4435495;32;20094;-66
2022/09/21 15:22:53;;;;;;;5.68;1.55;;;;;;;;;;4435925;32;20025;-71
2022/09/21 15:25:18;;;;;;;3.90;1.17;;;;;;;;;;4436198;32;20030;-64
2022/09/21 15:27:45;;;;;;;10.75;2.25;;;;;;;;;;4438044;32;20082;-70
2022/09/21 15:30:18;;;;;;;6.15;1.25;;;;;;;;;;4437807;32;20116;-71
2022/09/21 15:32:45;;;;;;;4.65;1.87;;;;;;;;;;4435778;32;20045;-64
2022/09/21 15:35:19;;;;;;;4.20;1.70;;;;;;;;;;4434326;32;20080;-70
2022/09/21 15:37:45;;;;;;;4.78;1.30;;;;;;;;;;4420889;32;20341;-70
2022/09/21 15:40:31;;;;;;;5.43;1.80;;;;;;;;;;4419778;32;20073;-69
2022/09/21 15:43:15;;;;;;;4.93;1.92;;;;;;;;;;4420823;32;20118;-70
2022/09/21 15:45:44;;;;;;;8.32;2.65;;;;;;;;;;4413769;32;20415;-66
2022/09/21 15:48:11;;;;;;;5.50;1.80;;;;;;;;;;4434559;32;20064;-66
2022/09/21 15:50:37;;;;;;;5.75;1.70;;;;;;;;;;4436560;32;20407;-69
2022/09/21 15:53:04;;;;;;;3.55;1.35;;;;;;;;;;4436557;32;20090;-70
2022/09/21 15:55:30;;;;;;;3.25;1.20;;;;;;;;;;4436270;32;20396;-68
2022/09/21 15:57:56;;;;;;;7.15;1.60;;;;;;;;;;4436960;32;20083;-68
2022/09/21 16:00:23;;;;;;;3.70;0.88;;;;;;;;;;4436067;32;20060;-69
2022/09/21 16:03:03;;;;;;;7.68;1.62;;;;;;;;;;4436578;32;20041;-68
2022/09/21 16:05:29;;;;;;;3.53;1.30;;;;;;;;;;4436194;32;20374;-67
2022/09/21 16:08:16;;;;;;;6.40;1.52;;;;;;;;;;4436366;32;20461;-71
2022/09/21 16:10:43;;;;;;;6.20;1.45;;;;;;;;;;4424211;32;20057;-64
2022/09/21 16:16:03;;;;;;;11.10;1.77;;;;;;;;;;4432297;32;20480;-68
2022/09/21 16:18:33;;;;;;;8.85;1.70;;;;;;;;;;4435723;32;20081;-69
2022/09/21 16:21:06;;;;;;;4.25;1.65;;;;;;;;;;4434864;32;20081;-66
2022/09/21 16:23:31;;;;;;;4.78;1.23;;;;;;;;;;4431916;32;20037;-69
2022/09/21 16:25:59;;;;;;;5.75;1.70;;;;;;;;;;4434763;32;20098;-67
2022/09/21 16:28:32;;;;;;;10.07;1.70;;;;;;;;;;4415722;32;20084;-66
2022/09/21 16:30:58;;;;;;;5.05;1.60;;;;;;;;;;4431299;32;20084;-67
2022/09/21 16:33:36;;;;;;;10.30;2.17;;;;;;;;;;4432859;32;20060;-67
2022/09/21 16:36:03;;;;;;;5.32;1.55;;;;;;;;;;4435223;32;20072;-64
2022/09/21 16:38:29;;;;;;;5.03;1.42;;;;;;;;;;4436108;32;20094;-65
2022/09/21 16:40:55;;;;;;;6.25;1.50;;;;;;;;;;4434773;32;20049;-64
2022/09/21 16:43:22;;;;;;;4.12;1.58;;;;;;;;;;4433768;32;20045;-66
2022/09/21 16:45:47;;;;;;;6.20;1.87;;;;;;;;;;4417739;32;20119;-66
2022/09/21 16:48:12;;;;;;;9.70;1.73;;;;;;;;;;4428467;32;20033;-67
2022/09/21 16:50:37;;;;;;;7.87;1.67;;;;;;;;;;4430369;32;20159;-64
2022/09/21 16:53:03;;;;;;;8.70;1.83;;;;;;;;;;4436306;32;20042;-67
2022/09/21 16:55:29;;;;;;;5.40;1.67;;;;;;;;;;4436881;32;20152;-65
2022/09/21 16:57:54;;;;;;;9.32;2.95;;;;;;;;;;4433703;32;20083;-66
2022/09/21 17:00:20;;;;;;;5.80;1.80;;;;;;;;;;4432921;32;20456;-67
2022/09/21 17:02:46;;;;;;;4.30;1.85;;;;;;;;;;4418896;32;20136;-65
2022/09/21 17:05:16;;;;;;;4.90;1.87;;;;;;;;;;4431858;32;20037;-67
2022/09/21 17:07:46;;;;;;;7.60;1.92;;;;;;;;;;4433121;32;20422;-66
2022/09/21 17:10:13;;;;;;;6.75;2.03;;;;;;;;;;4432235;32;20477;-67
2022/09/21 17:12:38;;;;;;;4.75;1.85;;;;;;;;;;4432887;32;20064;-67
2022/09/21 17:15:05;;;;;;;10.90;1.92;;;;;;;;;;4432821;32;20088;-66
2022/09/21 17:17:31;;;;;;;8.05;2.08;;;;;;;;;;4434027;32;20468;-67
2022/09/21 17:19:57;;;;;;;6.72;1.92;;;;;;;;;;4432712;32;20116;-66
2022/09/21 17:22:24;;;;;;;4.90;2.60;;;;;;;;;;4433193;32;20145;-67
2022/09/21 17:24:50;;;;;;;5.40;2.55;;;;;;;;;;4431408;32;20038;-65
2022/09/21 17:27:18;;;;;;;11.57;2.92;;;;;;;;;;4434495;32;20072;-66
2022/09/21 17:29:48;;;;;;;7.43;2.50;;;;;;;;;;4420611;32;20070;-66
2022/09/21 17:32:14;;;;;;;9.63;2.78;;;;;;;;;;4433602;32;20338;-67
2022/09/21 17:34:43;;;;;;;5.37;2.10;;;;;;;;;;4434731;32;20382;-65
2022/09/21 17:37:09;;;;;;;7.15;2.67;;;;;;;;;;4433168;32;20090;-66
2022/09/21 17:39:34;;;;;;;6.97;2.35;;;;;;;;;;4434601;32;20054;-65
2022/09/21 17:42:14;;;;;;;6.35;2.65;;;;;;;;;;4433790;32;20062;-65
2022/09/21 17:45:00;;;;;;;6.82;1.92;;;;;;;;;;4435911;32;20065;-69
2022/09/21 17:47:28;;;;;;;7.68;1.95;;;;;;;;;;4429779;32;20138;-66
2022/09/21 17:49:53;;;;;;;6.37;2.25;;;;;;;;;;4434990;32;20041;-66
2022/09/21 17:55:08;;;;;;;7.87;1.92;;;;;;;;;;4435321;32;20104;-64
2022/09/21 17:57:47;;;;;;;8.80;2.47;;;;;;;;;;4436438;32;20046;-63